createdAt,value
2023-12-11T00:00:07.788Z,16.60
2023-12-11T00:02:37.536Z,37.20
2023-12-11T00:05:06.469Z,31.80
2023-12-11T00:07:35.339Z,48.20
2023-12-11T00:10:04.611Z,30.30
2023-12-11T00:12:33.479Z,39.00
2023-12-11T00:15:02.818Z,27.60
2023-12-11T00:17:32.234Z,37.10
2023-12-11T00:20:01.161Z,31.40
2023-12-11T00:22:30.345Z,42.80
2023-12-11T00:24:59.336Z,25.60
2023-12-11T00:27:28.850Z,39.60
2023-12-11T00:29:59.861Z,30.40
2023-12-11T00:32:29.676Z,16.20
2023-12-11T00:34:58.462Z,18.60
2023-12-11T00:37:27.899Z,19.50
2023-12-11T00:39:57.598Z,18.70
2023-12-11T00:42:26.254Z,21.90
2023-12-11T00:44:55.099Z,23.70
2023-12-11T00:47:24.176Z,20.30
2023-12-11T00:49:53.075Z,33.40
2023-12-11T00:52:22.283Z,29.10
2023-12-11T00:54:51.265Z,27.60
2023-12-11T00:57:19.950Z,21.20
2023-12-11T00:59:49.227Z,13.50
2023-12-11T01:02:19.447Z,22.10
2023-12-11T01:04:48.163Z,15.60
2023-12-11T01:07:17.316Z,17.10
2023-12-11T01:09:46.263Z,15.50
2023-12-11T01:12:15.024Z,16.90
2023-12-11T01:14:44.811Z,9.00
2023-12-11T01:17:37.019Z,13.20
2023-12-11T01:20:03.000Z,13.70
2023-12-11T01:22:31.809Z,12.30
2023-12-11T01:25:04.465Z,20.10
2023-12-11T01:27:34.136Z,18.10
2023-12-11T01:30:03.214Z,18.60
2023-12-11T01:32:32.117Z,19.50
2023-12-11T01:35:01.110Z,18.20
2023-12-11T01:37:30.009Z,20.80
2023-12-11T01:39:59.315Z,23.50
2023-12-11T01:42:28.357Z,21.40
2023-12-11T01:44:57.021Z,14.10
2023-12-11T01:47:26.559Z,11.50
2023-12-11T01:49:55.977Z,14.10
2023-12-11T01:52:26.219Z,12.00
2023-12-11T01:54:55.285Z,11.60
2023-12-11T01:57:24.522Z,13.50
2023-12-11T01:59:53.226Z,10.80
2023-12-11T02:02:22.430Z,30.30
2023-12-11T02:04:51.737Z,15.60
2023-12-11T02:07:20.876Z,19.60
2023-12-11T02:09:49.924Z,12.10
2023-12-11T02:12:19.008Z,15.00
2023-12-11T02:14:47.735Z,14.30
2023-12-11T02:17:16.888Z,14.60
2023-12-11T02:19:46.124Z,13.10
2023-12-11T02:22:16.200Z,10.10
2023-12-11T02:27:18.193Z,10.60
2023-12-11T02:29:46.879Z,13.50
2023-12-11T02:32:17.896Z,16.20
2023-12-11T02:34:49.228Z,13.80
2023-12-11T02:37:18.273Z,18.00
2023-12-11T02:39:47.720Z,16.50
2023-12-11T02:42:16.876Z,68.10
2023-12-11T02:44:45.805Z,35.30
2023-12-11T02:47:14.744Z,18.60
2023-12-11T02:49:43.513Z,13.50
2023-12-11T02:52:12.506Z,17.20
2023-12-11T02:54:41.638Z,16.00
2023-12-11T02:57:12.111Z,9.90
2023-12-11T02:59:40.747Z,9.40
2023-12-11T03:02:09.896Z,5.80
2023-12-11T03:04:39.824Z,7.00
2023-12-11T03:07:08.547Z,16.90
2023-12-11T03:09:38.262Z,9.80
2023-12-11T03:12:07.809Z,8.10
2023-12-11T03:14:36.481Z,14.30
2023-12-11T03:17:05.414Z,8.70
2023-12-11T03:19:35.149Z,12.50
2023-12-11T03:22:03.947Z,7.50
2023-12-11T03:24:33.333Z,7.00
2023-12-11T03:27:02.248Z,4.90
2023-12-11T03:29:30.864Z,6.40
2023-12-11T03:31:59.812Z,3.80
2023-12-11T03:34:29.023Z,5.00
2023-12-11T03:36:57.777Z,6.30
2023-12-11T03:39:29.710Z,6.10
2023-12-11T03:41:58.670Z,6.20
2023-12-11T03:44:27.721Z,6.20
2023-12-11T03:46:56.580Z,4.60
2023-12-11T03:49:25.941Z,10.60
2023-12-11T03:51:55.004Z,6.60
2023-12-11T03:54:24.180Z,5.70
2023-12-11T03:56:53.642Z,4.60
2023-12-11T03:59:24.764Z,4.10
2023-12-11T04:01:53.602Z,3.90
2023-12-11T04:04:23.205Z,6.00
2023-12-11T04:06:52.284Z,3.20
2023-12-11T04:09:20.922Z,3.60
2023-12-11T04:11:50.202Z,4.90
2023-12-11T04:14:19.156Z,4.00
2023-12-11T04:16:47.818Z,6.20
2023-12-11T04:19:16.760Z,5.50
2023-12-11T04:21:46.253Z,4.70
2023-12-11T04:24:15.264Z,3.60
2023-12-11T04:26:44.448Z,5.90
2023-12-11T04:29:13.622Z,3.60
2023-12-11T04:31:42.226Z,11.40
2023-12-11T04:34:11.453Z,4.30
2023-12-11T04:36:44.237Z,4.50
2023-12-11T04:39:14.277Z,4.70
2023-12-11T04:41:43.166Z,6.00
2023-12-11T04:44:11.988Z,4.00
2023-12-11T04:46:40.999Z,6.90
2023-12-11T04:49:09.791Z,5.50
2023-12-11T04:51:38.910Z,6.50
2023-12-11T04:54:10.524Z,5.80
2023-12-11T04:56:39.637Z,5.90
2023-12-11T04:59:08.296Z,4.90
2023-12-11T05:01:38.348Z,4.60
2023-12-11T05:04:07.252Z,6.70
2023-12-11T05:06:35.983Z,8.40
2023-12-11T05:09:05.187Z,7.10
2023-12-11T05:11:34.591Z,5.40
2023-12-11T05:14:03.922Z,9.70
2023-12-11T05:16:33.081Z,8.50
2023-12-11T05:19:07.373Z,5.50
2023-12-11T05:21:36.782Z,6.30
2023-12-11T05:24:05.763Z,6.80
2023-12-11T05:26:34.473Z,11.50
2023-12-11T05:29:05.436Z,11.30
2023-12-11T05:31:34.677Z,8.60
2023-12-11T05:34:04.260Z,10.00
2023-12-11T05:36:34.914Z,13.00
2023-12-11T05:39:04.057Z,13.40
2023-12-11T05:41:32.795Z,18.40
2023-12-11T05:44:01.598Z,31.70
2023-12-11T05:46:30.741Z,29.90
2023-12-11T05:48:59.793Z,22.70
2023-12-11T05:51:29.585Z,14.40
2023-12-11T05:53:58.414Z,11.60
2023-12-11T05:56:27.367Z,14.00
2023-12-11T05:58:56.825Z,15.10
2023-12-11T06:01:27.440Z,11.40
2023-12-11T06:03:56.452Z,8.20
2023-12-11T06:06:26.881Z,12.00
2023-12-11T06:08:56.777Z,13.70
2023-12-11T06:11:25.835Z,12.70
2023-12-11T06:13:54.680Z,7.20
2023-12-11T06:16:23.655Z,10.50
2023-12-11T06:18:52.497Z,9.70
2023-12-11T06:21:23.646Z,12.60
2023-12-11T06:23:52.302Z,12.00
2023-12-11T06:26:27.315Z,16.60
2023-12-11T06:28:56.651Z,14.00
2023-12-11T06:31:26.672Z,12.00
2023-12-11T06:36:27.048Z,28.50
2023-12-11T06:38:56.312Z,15.20
2023-12-11T06:41:25.482Z,11.40
2023-12-11T06:43:56.024Z,6.80
2023-12-11T06:46:26.957Z,11.50
2023-12-11T06:48:55.997Z,11.20
2023-12-11T06:51:26.216Z,13.70
2023-12-11T06:54:00.408Z,10.20
2023-12-11T06:56:33.333Z,14.30
2023-12-11T06:59:02.362Z,12.60
2023-12-11T07:01:32.727Z,22.10
2023-12-11T07:06:31.288Z,22.50
2023-12-11T07:09:00.552Z,13.60
2023-12-11T07:11:29.286Z,13.30
2023-12-11T07:14:00.379Z,21.20
2023-12-11T07:16:29.244Z,38.30
2023-12-11T07:18:58.347Z,22.00
2023-12-11T07:21:28.096Z,19.30
2023-12-11T07:23:57.333Z,15.10
2023-12-11T07:26:26.167Z,18.10
2023-12-11T07:28:55.564Z,17.60
2023-12-11T07:31:26.528Z,12.80
2023-12-11T07:33:56.926Z,19.20
2023-12-11T07:36:26.503Z,28.40
2023-12-11T07:38:55.273Z,17.60
2023-12-11T07:41:24.246Z,23.00
2023-12-11T07:43:53.381Z,12.10
2023-12-11T07:46:23.519Z,10.50
2023-12-11T07:48:53.502Z,10.00
2023-12-11T07:51:27.052Z,9.30
2023-12-11T07:54:00.567Z,11.90
2023-12-11T07:56:31.618Z,11.80
2023-12-11T07:59:00.283Z,16.70
2023-12-11T08:01:33.490Z,19.10
2023-12-11T08:04:03.093Z,14.70
2023-12-11T08:06:31.916Z,14.10
2023-12-11T08:09:01.785Z,9.90
2023-12-11T08:11:30.787Z,9.50
2023-12-11T08:13:59.522Z,11.00
2023-12-11T08:16:28.541Z,12.00
2023-12-11T08:18:57.452Z,11.80
2023-12-11T08:21:26.603Z,14.20
2023-12-11T08:23:55.897Z,19.20
2023-12-11T08:26:25.694Z,12.80
2023-12-11T08:28:55.483Z,10.80
2023-12-11T08:31:25.880Z,12.10
2023-12-11T08:33:55.005Z,11.70
2023-12-11T08:36:23.918Z,11.80
2023-12-11T08:38:53.334Z,20.60
2023-12-11T08:41:22.376Z,19.20
2023-12-11T08:43:51.128Z,24.40
2023-12-11T08:46:20.649Z,19.80
2023-12-11T08:48:50.686Z,18.20
2023-12-11T08:51:20.708Z,13.80
2023-12-11T08:53:49.965Z,13.90
2023-12-11T08:56:21.296Z,9.80
2023-12-11T08:58:50.091Z,10.60
2023-12-11T09:01:20.050Z,11.90
2023-12-11T09:03:50.150Z,11.40
2023-12-11T09:06:19.194Z,8.20
2023-12-11T09:08:48.162Z,9.70
2023-12-11T09:11:18.538Z,13.20
2023-12-11T09:13:47.857Z,17.30
2023-12-11T09:16:17.251Z,14.00
2023-12-11T09:18:46.356Z,19.00
2023-12-11T09:21:15.492Z,22.70
2023-12-11T09:23:44.419Z,24.50
2023-12-11T09:26:14.168Z,21.50
2023-12-11T09:28:50.774Z,11.00
2023-12-11T09:31:21.818Z,10.20
2023-12-11T09:33:53.006Z,9.50
2023-12-11T09:36:22.066Z,8.70
2023-12-11T09:38:51.066Z,6.10
2023-12-11T09:41:20.093Z,9.00
2023-12-11T09:43:50.082Z,5.20
2023-12-11T09:46:21.043Z,4.10
2023-12-11T09:48:50.452Z,6.00
2023-12-11T09:51:19.353Z,9.90
2023-12-11T09:53:49.988Z,6.30
2023-12-11T09:56:19.884Z,9.90
2023-12-11T09:58:48.636Z,7.60
2023-12-11T10:01:17.977Z,17.10
2023-12-11T10:03:46.974Z,9.60
2023-12-11T10:06:18.038Z,7.10
2023-12-11T10:08:48.907Z,14.70
2023-12-11T10:11:19.408Z,15.60
2023-12-11T10:13:50.669Z,19.60
2023-12-11T10:16:32.606Z,24.80
2023-12-11T10:19:04.641Z,21.80
2023-12-11T10:21:42.745Z,34.20
2023-12-11T10:24:16.484Z,13.10
2023-12-11T10:26:55.057Z,8.90
2023-12-11T10:29:28.708Z,14.10
2023-12-11T10:32:08.409Z,19.50
2023-12-11T10:34:53.165Z,14.00
2023-12-11T10:37:31.595Z,20.30
2023-12-11T10:40:00.655Z,17.10
2023-12-11T10:42:29.616Z,15.00
2023-12-11T10:44:58.742Z,18.50
2023-12-11T10:47:28.362Z,18.70
2023-12-11T10:50:02.870Z,11.80
2023-12-11T10:52:34.078Z,14.10
2023-12-11T10:55:03.662Z,11.80
2023-12-11T10:57:33.057Z,12.30
2023-12-11T11:00:02.876Z,10.60
2023-12-11T11:02:34.267Z,11.50
2023-12-11T11:05:03.303Z,11.50
2023-12-11T11:07:39.842Z,16.30
2023-12-11T11:10:35.256Z,10.40
2023-12-11T11:13:21.587Z,11.80
2023-12-11T11:15:55.079Z,8.80
2023-12-11T11:18:23.853Z,14.90
2023-12-11T11:21:14.562Z,32.70
2023-12-11T11:23:47.489Z,38.20
2023-12-11T11:26:35.735Z,49.40
2023-12-11T11:29:07.257Z,32.30
2023-12-11T11:31:52.959Z,28.30
2023-12-11T11:37:19.351Z,21.80
2023-12-11T11:40:05.048Z,15.50
2023-12-11T11:42:36.270Z,15.40
2023-12-11T11:45:09.428Z,22.10
2023-12-11T11:47:38.915Z,28.70
2023-12-11T11:50:15.334Z,39.20
2023-12-11T11:52:47.799Z,39.60
2023-12-11T11:55:25.708Z,98.80
2023-12-11T11:57:55.867Z,59.10
2023-12-11T12:00:26.593Z,54.10
2023-12-11T12:03:06.920Z,26.70
2023-12-11T12:05:39.795Z,36.00
2023-12-11T12:08:09.834Z,25.70
2023-12-11T12:10:38.557Z,21.60
2023-12-11T12:13:07.299Z,22.90
2023-12-11T12:15:46.399Z,20.60
2023-12-11T12:18:25.042Z,30.60
2023-12-11T12:21:06.094Z,19.50
2023-12-11T12:23:36.232Z,14.20
2023-12-11T12:26:16.138Z,14.70
2023-12-11T12:29:02.162Z,11.60
2023-12-11T12:31:32.332Z,15.70
2023-12-11T12:34:01.485Z,20.30
2023-12-11T12:36:31.537Z,12.90
2023-12-11T12:39:01.497Z,17.70
2023-12-11T12:41:31.215Z,17.80
2023-12-11T12:44:03.812Z,19.50
2023-12-11T12:46:43.138Z,17.50
2023-12-11T12:49:13.829Z,31.30
2023-12-11T12:51:50.345Z,33.80
2023-12-11T12:54:21.090Z,19.40
2023-12-11T12:56:59.701Z,29.70
2023-12-11T12:59:32.242Z,31.20
2023-12-11T13:02:03.392Z,12.90
2023-12-11T13:04:33.845Z,21.60
2023-12-11T13:07:12.443Z,13.30
2023-12-11T13:09:41.401Z,15.60
2023-12-11T13:12:10.528Z,10.40
2023-12-11T13:14:39.363Z,13.60
2023-12-11T13:17:08.585Z,12.70
2023-12-11T13:19:37.564Z,12.90
2023-12-11T13:22:09.952Z,21.10
2023-12-11T13:24:38.897Z,14.00
2023-12-11T13:27:08.352Z,19.10
2023-12-11T13:29:37.761Z,13.30
2023-12-11T13:32:07.479Z,17.00
2023-12-11T13:34:36.339Z,19.40
2023-12-11T13:37:05.430Z,16.80
2023-12-11T13:39:34.511Z,18.40
2023-12-11T13:42:03.206Z,38.80
2023-12-11T13:44:32.304Z,23.60
2023-12-11T13:47:01.431Z,30.50
2023-12-11T13:49:30.613Z,39.30
2023-12-11T13:51:59.369Z,34.90
2023-12-11T13:54:30.169Z,28.90
2023-12-11T13:56:58.740Z,38.90
2023-12-11T13:59:27.592Z,68.40
2023-12-11T14:01:58.935Z,133.40
2023-12-11T14:04:29.990Z,34.10
2023-12-11T14:07:01.151Z,32.70
2023-12-11T14:09:33.467Z,28.10
2023-12-11T14:12:03.332Z,29.00
2023-12-11T14:14:32.119Z,46.10
2023-12-11T14:17:01.224Z,35.80
2023-12-11T14:19:32.070Z,34.80
2023-12-11T14:22:01.221Z,27.30
2023-12-11T14:24:30.021Z,28.30
2023-12-11T14:26:59.175Z,24.00
2023-12-11T14:29:27.979Z,20.60
2023-12-11T14:31:56.668Z,30.00
2023-12-11T14:34:25.732Z,30.30
2023-12-11T14:36:54.694Z,34.30
2023-12-11T14:39:27.666Z,54.60
2023-12-11T14:41:56.754Z,37.60
2023-12-11T14:44:25.811Z,36.00
2023-12-11T14:46:55.072Z,33.40
2023-12-11T14:49:24.398Z,27.80
2023-12-11T14:51:53.484Z,40.10
2023-12-11T14:54:22.182Z,42.10
2023-12-11T14:56:51.240Z,47.60
2023-12-11T14:59:20.787Z,33.90
2023-12-11T15:01:49.985Z,43.40
2023-12-11T15:04:19.232Z,33.20
2023-12-11T15:06:48.232Z,44.10
2023-12-11T15:09:18.543Z,31.10
2023-12-11T15:11:47.531Z,89.00
2023-12-11T15:14:16.674Z,153.80
2023-12-11T15:16:47.306Z,146.30
2023-12-11T15:19:16.502Z,209.40
2023-12-11T15:21:45.505Z,229.50
2023-12-11T15:24:14.439Z,65.10
2023-12-11T15:26:44.828Z,52.20
2023-12-11T15:29:13.904Z,60.30
2023-12-11T15:31:43.843Z,181.00
2023-12-11T15:36:44.009Z,136.20
2023-12-11T15:39:13.899Z,95.20
2023-12-11T15:41:42.746Z,85.30
2023-12-11T15:44:13.844Z,53.70
2023-12-11T15:46:44.269Z,77.20
2023-12-11T15:49:16.424Z,56.40
2023-12-11T15:51:53.554Z,53.10
2023-12-11T15:54:22.516Z,81.90
2023-12-11T15:56:51.155Z,50.00
2023-12-11T15:59:20.195Z,61.30
2023-12-11T16:01:49.468Z,69.30
2023-12-11T16:04:18.396Z,60.20
2023-12-11T16:06:47.435Z,75.40
2023-12-11T16:09:19.279Z,67.30
2023-12-11T16:11:48.896Z,56.70
2023-12-11T16:14:17.988Z,51.10
2023-12-11T16:16:46.553Z,41.20
2023-12-11T16:19:19.856Z,41.80
2023-12-11T16:21:48.931Z,69.90
2023-12-11T16:24:19.350Z,58.80
2023-12-11T16:26:49.791Z,47.50
2023-12-11T16:29:22.509Z,44.60
2023-12-11T16:31:58.359Z,43.70
2023-12-11T16:34:29.601Z,150.10
2023-12-11T16:36:58.858Z,44.40
2023-12-11T16:39:27.583Z,43.00
2023-12-11T16:41:56.967Z,55.40
2023-12-11T16:44:25.995Z,61.60
2023-12-11T16:46:54.995Z,59.10
2023-12-11T16:49:23.809Z,46.90
2023-12-11T16:51:52.648Z,57.20
2023-12-11T16:54:21.970Z,31.50
2023-12-11T16:56:51.290Z,46.20
2023-12-11T16:59:20.276Z,40.90
2023-12-11T17:01:49.596Z,30.70
2023-12-11T17:04:18.402Z,46.70
2023-12-11T17:06:47.640Z,26.10
2023-12-11T17:09:17.124Z,61.30
2023-12-11T17:11:47.180Z,49.20
2023-12-11T17:14:16.331Z,48.30
2023-12-11T17:16:45.326Z,187.60
2023-12-11T17:19:14.108Z,89.70
2023-12-11T17:21:43.908Z,92.40
2023-12-11T17:24:13.691Z,107.60
2023-12-11T17:26:42.543Z,91.40
2023-12-11T17:29:11.511Z,78.90
2023-12-11T17:31:40.673Z,39.70
2023-12-11T17:34:09.827Z,153.30
2023-12-11T17:36:38.703Z,83.80
2023-12-11T17:39:07.545Z,73.80
2023-12-11T17:41:36.231Z,67.60
2023-12-11T17:44:05.100Z,58.40
2023-12-11T17:46:33.864Z,52.00
2023-12-11T17:49:02.873Z,56.80
2023-12-11T17:51:31.757Z,39.10
2023-12-11T17:54:00.824Z,53.90
2023-12-11T17:56:29.746Z,43.70
2023-12-11T17:58:58.763Z,33.30
2023-12-11T18:01:27.927Z,31.60
2023-12-11T18:04:05.738Z,65.90
2023-12-11T18:06:53.058Z,49.20
2023-12-11T18:09:37.868Z,41.80
2023-12-11T18:12:24.784Z,44.00
2023-12-11T18:15:07.871Z,36.90
2023-12-11T18:17:50.999Z,19.90
2023-12-11T18:20:30.173Z,27.40
2023-12-11T18:23:12.919Z,24.00
2023-12-11T18:25:53.686Z,40.80
2023-12-11T18:28:38.749Z,29.50
2023-12-11T18:31:29.221Z,12.90
2023-12-11T18:34:16.434Z,37.40
2023-12-11T18:37:06.348Z,47.30
2023-12-11T18:39:48.943Z,11.00
2023-12-11T18:42:23.672Z,13.80
2023-12-11T18:44:53.272Z,13.00
2023-12-11T18:47:21.913Z,13.70
2023-12-11T18:49:50.976Z,19.80
2023-12-11T18:52:20.081Z,13.60
2023-12-11T18:54:49.275Z,10.30
2023-12-11T18:57:18.323Z,10.10
2023-12-11T18:59:47.254Z,5.80
2023-12-11T19:02:16.531Z,16.20
2023-12-11T19:04:45.904Z,11.00
2023-12-11T19:07:15.258Z,6.70
2023-12-11T19:09:43.920Z,5.70
2023-12-11T19:12:12.871Z,7.20
2023-12-11T19:14:41.805Z,7.80
2023-12-11T19:17:10.391Z,21.20
2023-12-11T19:19:39.517Z,24.50
2023-12-11T19:22:09.037Z,15.70
2023-12-11T19:24:37.818Z,7.80
2023-12-11T19:27:06.501Z,14.60
2023-12-11T19:29:35.877Z,9.70
2023-12-11T19:32:05.009Z,35.60
2023-12-11T19:34:34.126Z,14.50
2023-12-11T19:37:05.882Z,11.20
2023-12-11T19:39:35.093Z,15.40
2023-12-11T19:42:04.121Z,6.80
2023-12-11T19:44:32.761Z,13.70
2023-12-11T19:47:02.289Z,7.30
2023-12-11T19:49:31.310Z,5.60
2023-12-11T19:51:59.977Z,5.70
2023-12-11T19:54:29.125Z,7.70
2023-12-11T19:56:58.593Z,3.80
2023-12-11T19:59:27.254Z,6.00
2023-12-11T20:01:56.315Z,4.00
2023-12-11T20:04:25.653Z,9.60
2023-12-11T20:06:54.337Z,4.50
2023-12-11T20:09:23.321Z,3.70
2023-12-11T20:12:03.338Z,4.20
2023-12-11T20:14:39.689Z,19.80
2023-12-11T20:17:09.069Z,16.20
2023-12-11T20:19:38.111Z,4.20
2023-12-11T20:22:07.264Z,10.80
2023-12-11T20:24:36.320Z,6.60
2023-12-11T20:27:05.302Z,5.40
2023-12-11T20:29:34.205Z,6.10
2023-12-11T20:32:04.097Z,7.70
2023-12-11T20:34:32.829Z,5.70
2023-12-11T20:37:01.909Z,9.90
2023-12-11T20:39:32.344Z,7.70
2023-12-11T20:42:00.974Z,8.20
2023-12-11T20:44:30.112Z,11.80
2023-12-11T20:46:59.216Z,6.80
2023-12-11T20:49:28.017Z,5.90
2023-12-11T20:51:57.223Z,7.30
2023-12-11T20:54:29.191Z,4.60
2023-12-11T20:56:58.884Z,7.40
2023-12-11T20:59:27.777Z,5.40
2023-12-11T21:01:56.970Z,5.40
2023-12-11T21:04:27.290Z,6.10
2023-12-11T21:06:57.163Z,7.80
2023-12-11T21:09:26.370Z,5.70
2023-12-11T21:11:58.211Z,13.50
2023-12-11T21:14:26.977Z,9.00
2023-12-11T21:16:56.230Z,3.80
2023-12-11T21:19:26.627Z,5.30
2023-12-11T21:21:55.782Z,6.00
2023-12-11T21:24:24.573Z,8.40
2023-12-11T21:26:54.728Z,4.20
2023-12-11T21:29:24.609Z,5.40
2023-12-11T21:31:54.087Z,5.40
2023-12-11T21:34:26.328Z,4.90
2023-12-11T21:36:55.782Z,7.40
2023-12-11T21:39:24.664Z,4.30
2023-12-11T21:41:53.446Z,7.10
2023-12-11T21:44:22.564Z,17.90
2023-12-11T21:46:51.265Z,10.30
2023-12-11T21:49:21.237Z,7.20
2023-12-11T21:51:51.571Z,9.90
2023-12-11T21:54:22.251Z,14.10
2023-12-11T21:56:51.155Z,10.70
2023-12-11T21:59:21.348Z,11.50
2023-12-11T22:01:53.940Z,13.50
2023-12-11T22:04:22.712Z,16.30
2023-12-11T22:06:51.377Z,9.50
2023-12-11T22:09:22.483Z,11.30
2023-12-11T22:11:51.070Z,9.70
2023-12-11T22:14:19.666Z,16.10
2023-12-11T22:16:48.920Z,18.00
2023-12-11T22:19:18.880Z,12.60
2023-12-11T22:21:48.348Z,14.40
2023-12-11T22:24:20.406Z,16.70
2023-12-11T22:26:49.053Z,11.20
2023-12-11T22:29:17.652Z,14.20
2023-12-11T22:31:48.467Z,9.40
2023-12-11T22:34:17.654Z,8.40
2023-12-11T22:36:48.859Z,11.60
2023-12-11T22:39:19.153Z,8.70
2023-12-11T22:41:47.875Z,8.10
2023-12-11T22:44:16.452Z,5.80
2023-12-11T22:46:45.560Z,10.00
2023-12-11T22:49:17.954Z,5.30
2023-12-11T22:51:47.136Z,7.20
2023-12-11T22:54:19.158Z,8.80
2023-12-11T22:56:48.330Z,5.90
2023-12-11T22:59:16.905Z,4.30
2023-12-11T23:01:45.923Z,4.60
2023-12-11T23:04:15.386Z,5.30
2023-12-11T23:06:44.132Z,2.20
2023-12-11T23:09:15.716Z,5.00
2023-12-11T23:11:44.662Z,3.90
2023-12-11T23:14:13.254Z,3.50
2023-12-11T23:16:42.209Z,3.30
2023-12-11T23:19:11.483Z,3.70
2023-12-11T23:21:40.257Z,5.20
2023-12-11T23:24:09.065Z,2.60
2023-12-11T23:26:38.023Z,3.10
2023-12-11T23:29:06.580Z,5.60
2023-12-11T23:31:35.813Z,2.80
2023-12-11T23:34:05.281Z,7.00
2023-12-11T23:36:34.300Z,6.20
2023-12-11T23:39:04.127Z,3.70
2023-12-11T23:44:01.779Z,16.50
2023-12-11T23:46:31.103Z,8.40
2023-12-11T23:49:00.319Z,11.00
2023-12-11T23:51:29.119Z,27.90
2023-12-11T23:53:58.418Z,9.30
2023-12-11T23:56:27.176Z,8.60
2023-12-11T23:58:55.812Z,12.80
